sensor_id;sensor_type;location;lat;lon;timestamp;P1;P2;P0
77515;PMS5003;66627;29.424;-98.496;2023-12-20T00:00:20;10;8;
77515;PMS5003;66627;29.424;-98.496;2023-12-20T00:02:46;5;5;
77515;PMS5003;66627;29.424;-98.496;2023-12-20T00:05:11;9;8;
77515;PMS5003;66627;29.424;-98.496;2023-12-20T00:07:35;7;7;
77515;PMS5003;66627;29.424;-98.496;2023-12-20T00:10:01;8;7;
77515;PMS5003;66627;29.424;-98.496;2023-12-20T00:12:26;6;6;
77515;PMS5003;66627;29.424;-98.496;2023-12-20T00:14:52;6;6;
77515;PMS5003;66627;29.424;-98.496;2023-12-20T00:17:17;6;6;
77515;PMS5003;66627;29.424;-98.496;2023-12-20T00:19:41;7;7;
77515;PMS5003;66627;29.424;-98.496;2023-12-20T00:22:07;6;6;
77515;PMS5003;66627;29.424;-98.496;2023-12-20T00:24:32;7;7;
77515;PMS5003;66627;29.424;-98.496;2023-12-20T00:26:57;6;6;
77515;PMS5003;66627;29.424;-98.496;2023-12-20T00:29:22;9;6;
77515;PMS5003;66627;29.424;-98.496;2023-12-20T00:31:47;6;6;
77515;PMS5003;66627;29.424;-98.496;2023-12-20T00:34:13;6;6;
77515;PMS5003;66627;29.424;-98.496;2023-12-20T00:36:38;6;6;
77515;PMS5003;66627;29.424;-98.496;2023-12-20T00:39:03;8;8;
77515;PMS5003;66627;29.424;-98.496;2023-12-20T00:41:28;10;10;
77515;PMS5003;66627;29.424;-98.496;2023-12-20T00:43:53;9;9;
77515;PMS5003;66627;29.424;-98.496;2023-12-20T00:46:19;10;10;
77515;PMS5003;66627;29.424;-98.496;2023-12-20T00:48:44;9;9;
77515;PMS5003;66627;29.424;-98.496;2023-12-20T00:51:09;13;13;
77515;PMS5003;66627;29.424;-98.496;2023-12-20T00:53:34;12;11;
77515;PMS5003;66627;29.424;-98.496;2023-12-20T00:56:00;8;8;
77515;PMS5003;66627;29.424;-98.496;2023-12-20T00:58:25;9;9;
77515;PMS5003;66627;29.424;-98.496;2023-12-20T01:00:50;11;11;
77515;PMS5003;66627;29.424;-98.496;2023-12-20T01:03:17;13;12;
77515;PMS5003;66627;29.424;-98.496;2023-12-20T01:05:42;12;12;
77515;PMS5003;66627;29.424;-98.496;2023-12-20T01:08:08;13;13;
77515;PMS5003;66627;29.424;-98.496;2023-12-20T01:10:32;9;9;
77515;PMS5003;66627;29.424;-98.496;2023-12-20T01:12:58;10;9;
77515;PMS5003;66627;29.424;-98.496;2023-12-20T01:15:24;10;10;
77515;PMS5003;66627;29.424;-98.496;2023-12-20T01:17:48;13;10;
77515;PMS5003;66627;29.424;-98.496;2023-12-20T01:20:13;13;11;
77515;PMS5003;66627;29.424;-98.496;2023-12-20T01:22:38;7;7;
77515;PMS5003;66627;29.424;-98.496;2023-12-20T01:25:04;8;8;
77515;PMS5003;66627;29.424;-98.496;2023-12-20T01:27:29;6;6;
77515;PMS5003;66627;29.424;-98.496;2023-12-20T01:29:54;8;8;
77515;PMS5003;66627;29.424;-98.496;2023-12-20T01:32:19;8;8;
77515;PMS5003;66627;29.424;-98.496;2023-12-20T01:34:44;7;7;
77515;PMS5003;66627;29.424;-98.496;2023-12-20T01:37:09;8;8;
77515;PMS5003;66627;29.424;-98.496;2023-12-20T01:39:35;6;6;
77515;PMS5003;66627;29.424;-98.496;2023-12-20T01:42:00;6;6;
77515;PMS5003;66627;29.424;-98.496;2023-12-20T01:44:26;6;6;
77515;PMS5003;66627;29.424;-98.496;2023-12-20T01:46:51;7;7;
77515;PMS5003;66627;29.424;-98.496;2023-12-20T01:49:16;4;4;
77515;PMS5003;66627;29.424;-98.496;2023-12-20T01:51:42;7;7;
77515;PMS5003;66627;29.424;-98.496;2023-12-20T01:54:06;9;8;
77515;PMS5003;66627;29.424;-98.496;2023-12-20T01:56:31;5;5;
77515;PMS5003;66627;29.424;-98.496;2023-12-20T01:58:57;7;6;
77515;PMS5003;66627;29.424;-98.496;2023-12-20T02:01:22;9;9;
77515;PMS5003;66627;29.424;-98.496;2023-12-20T02:03:47;7;7;
77515;PMS5003;66627;29.424;-98.496;2023-12-20T02:06:12;6;6;
77515;PMS5003;66627;29.424;-98.496;2023-12-20T02:08:39;8;8;
77515;PMS5003;66627;29.424;-98.496;2023-12-20T02:11:03;9;9;
77515;PMS5003;66627;29.424;-98.496;2023-12-20T02:13:28;6;6;
77515;PMS5003;66627;29.424;-98.496;2023-12-20T02:15:54;8;6;
77515;PMS5003;66627;29.424;-98.496;2023-12-20T02:18:18;7;7;
77515;PMS5003;66627;29.424;-98.496;2023-12-20T02:20:44;8;8;
77515;PMS5003;66627;29.424;-98.496;2023-12-20T02:23:09;12;10;
77515;PMS5003;66627;29.424;-98.496;2023-12-20T02:25:34;8;8;
77515;PMS5003;66627;29.424;-98.496;2023-12-20T02:28:00;8;8;
77515;PMS5003;66627;29.424;-98.496;2023-12-20T02:30:25;9;9;
77515;PMS5003;66627;29.424;-98.496;2023-12-20T02:32:50;8;8;
77515;PMS5003;66627;29.424;-98.496;2023-12-20T02:35:16;8;8;
77515;PMS5003;66627;29.424;-98.496;2023-12-20T02:37:40;7;7;
77515;PMS5003;66627;29.424;-98.496;2023-12-20T02:40:06;7;7;
77515;PMS5003;66627;29.424;-98.496;2023-12-20T02:42:30;9;9;
77515;PMS5003;66627;29.424;-98.496;2023-12-20T02:44:56;8;6;
77515;PMS5003;66627;29.424;-98.496;2023-12-20T02:47:22;7;7;
77515;PMS5003;66627;29.424;-98.496;2023-12-20T02:49:46;8;8;
77515;PMS5003;66627;29.424;-98.496;2023-12-20T02:52:11;7;7;
77515;PMS5003;66627;29.424;-98.496;2023-12-20T02:54:37;8;8;
77515;PMS5003;66627;29.424;-98.496;2023-12-20T02:57:02;8;7;
77515;PMS5003;66627;29.424;-98.496;2023-12-20T02:59:28;7;6;
77515;PMS5003;66627;29.424;-98.496;2023-12-20T03:01:53;10;10;
77515;PMS5003;66627;29.424;-98.496;2023-12-20T03:04:18;10;10;
77515;PMS5003;66627;29.424;-98.496;2023-12-20T03:06:43;6;6;
77515;PMS5003;66627;29.424;-98.496;2023-12-20T03:09:09;6;6;
77515;PMS5003;66627;29.424;-98.496;2023-12-20T03:11:35;7;7;
77515;PMS5003;66627;29.424;-98.496;2023-12-20T03:13:59;7;7;
77515;PMS5003;66627;29.424;-98.496;2023-12-20T03:16:25;9;9;
77515;PMS5003;66627;29.424;-98.496;2023-12-20T03:18:50;12;11;
77515;PMS5003;66627;29.424;-98.496;2023-12-20T03:21:16;10;9;
77515;PMS5003;66627;29.424;-98.496;2023-12-20T03:23:41;8;7;
77515;PMS5003;66627;29.424;-98.496;2023-12-20T03:26:08;9;9;
77515;PMS5003;66627;29.424;-98.496;2023-12-20T03:28:32;7;7;
77515;PMS5003;66627;29.424;-98.496;2023-12-20T03:30:56;10;10;
77515;PMS5003;66627;29.424;-98.496;2023-12-20T03:33:22;7;7;
77515;PMS5003;66627;29.424;-98.496;2023-12-20T03:35:47;9;9;
77515;PMS5003;66627;29.424;-98.496;2023-12-20T03:38:12;10;10;
77515;PMS5003;66627;29.424;-98.496;2023-12-20T03:40:38;10;10;
77515;PMS5003;66627;29.424;-98.496;2023-12-20T03:43:04;8;8;
77515;PMS5003;66627;29.424;-98.496;2023-12-20T03:45:29;10;9;
77515;PMS5003;66627;29.424;-98.496;2023-12-20T03:47:54;9;9;
77515;PMS5003;66627;29.424;-98.496;2023-12-20T03:50:19;12;12;
77515;PMS5003;66627;29.424;-98.496;2023-12-20T03:52:45;13;11;
77515;PMS5003;66627;29.424;-98.496;2023-12-20T03:55:10;11;11;
77515;PMS5003;66627;29.424;-98.496;2023-12-20T03:57:35;6;6;
77515;PMS5003;66627;29.424;-98.496;2023-12-20T04:00:00;9;9;
77515;PMS5003;66627;29.424;-98.496;2023-12-20T04:02:26;10;10;
77515;PMS5003;66627;29.424;-98.496;2023-12-20T04:04:50;10;10;
77515;PMS5003;66627;29.424;-98.496;2023-12-20T04:07:16;9;8;
77515;PMS5003;66627;29.424;-98.496;2023-12-20T04:09:41;9;9;
77515;PMS5003;66627;29.424;-98.496;2023-12-20T04:12:06;9;9;
77515;PMS5003;66627;29.424;-98.496;2023-12-20T04:14:31;10;10;
77515;PMS5003;66627;29.424;-98.496;2023-12-20T04:16:57;11;9;
77515;PMS5003;66627;29.424;-98.496;2023-12-20T04:19:23;10;10;
77515;PMS5003;66627;29.424;-98.496;2023-12-20T04:21:47;10;8;
77515;PMS5003;66627;29.424;-98.496;2023-12-20T04:24:12;13;9;
77515;PMS5003;66627;29.424;-98.496;2023-12-20T04:26:38;9;9;
77515;PMS5003;66627;29.424;-98.496;2023-12-20T04:29:03;14;13;
77515;PMS5003;66627;29.424;-98.496;2023-12-20T04:31:28;12;11;
77515;PMS5003;66627;29.424;-98.496;2023-12-20T04:33:53;12;10;
77515;PMS5003;66627;29.424;-98.496;2023-12-20T04:36:18;10;10;
77515;PMS5003;66627;29.424;-98.496;2023-12-20T04:38:44;13;10;
77515;PMS5003;66627;29.424;-98.496;2023-12-20T04:41:10;11;11;
77515;PMS5003;66627;29.424;-98.496;2023-12-20T04:43:36;9;8;
77515;PMS5003;66627;29.424;-98.496;2023-12-20T04:46:00;10;10;
77515;PMS5003;66627;29.424;-98.496;2023-12-20T04:48:26;11;11;
77515;PMS5003;66627;29.424;-98.496;2023-12-20T04:50:50;12;10;
77515;PMS5003;66627;29.424;-98.496;2023-12-20T04:53:17;12;12;
77515;PMS5003;66627;29.424;-98.496;2023-12-20T04:55:42;18;12;
77515;PMS5003;66627;29.424;-98.496;2023-12-20T04:58:09;11;11;
77515;PMS5003;66627;29.424;-98.496;2023-12-20T05:00:33;14;13;
77515;PMS5003;66627;29.424;-98.496;2023-12-20T05:02:58;17;15;
77515;PMS5003;66627;29.424;-98.496;2023-12-20T05:05:24;12;11;
77515;PMS5003;66627;29.424;-98.496;2023-12-20T05:07:49;16;13;
77515;PMS5003;66627;29.424;-98.496;2023-12-20T05:10:14;11;11;
77515;PMS5003;66627;29.424;-98.496;2023-12-20T05:12:39;16;13;
77515;PMS5003;66627;29.424;-98.496;2023-12-20T05:15:06;13;12;
77515;PMS5003;66627;29.424;-98.496;2023-12-20T05:17:32;14;13;
77515;PMS5003;66627;29.424;-98.496;2023-12-20T05:19:56;11;11;
77515;PMS5003;66627;29.424;-98.496;2023-12-20T05:22:21;11;11;
77515;PMS5003;66627;29.424;-98.496;2023-12-20T05:24:47;12;12;
77515;PMS5003;66627;29.424;-98.496;2023-12-20T05:27:13;12;11;
77515;PMS5003;66627;29.424;-98.496;2023-12-20T05:29:39;9;9;
77515;PMS5003;66627;29.424;-98.496;2023-12-20T05:32:04;12;10;
77515;PMS5003;66627;29.424;-98.496;2023-12-20T05:34:28;12;11;
77515;PMS5003;66627;29.424;-98.496;2023-12-20T05:36:54;11;11;
77515;PMS5003;66627;29.424;-98.496;2023-12-20T05:39:19;14;12;
77515;PMS5003;66627;29.424;-98.496;2023-12-20T05:41:45;12;12;
77515;PMS5003;66627;29.424;-98.496;2023-12-20T05:44:10;13;13;
77515;PMS5003;66627;29.424;-98.496;2023-12-20T05:46:36;12;12;
77515;PMS5003;66627;29.424;-98.496;2023-12-20T05:49:01;13;12;
77515;PMS5003;66627;29.424;-98.496;2023-12-20T05:51:27;12;12;
77515;PMS5003;66627;29.424;-98.496;2023-12-20T05:53:52;14;12;
77515;PMS5003;66627;29.424;-98.496;2023-12-20T05:56:19;11;11;
77515;PMS5003;66627;29.424;-98.496;2023-12-20T05:58:44;13;12;
77515;PMS5003;66627;29.424;-98.496;2023-12-20T06:01:09;15;15;
77515;PMS5003;66627;29.424;-98.496;2023-12-20T06:03:35;13;11;
77515;PMS5003;66627;29.424;-98.496;2023-12-20T06:06:04;16;16;
77515;PMS5003;66627;29.424;-98.496;2023-12-20T06:08:26;13;13;
77515;PMS5003;66627;29.424;-98.496;2023-12-20T06:10:51;15;15;
77515;PMS5003;66627;29.424;-98.496;2023-12-20T06:13:16;14;13;
77515;PMS5003;66627;29.424;-98.496;2023-12-20T06:15:42;18;18;
77515;PMS5003;66627;29.424;-98.496;2023-12-20T06:18:08;12;12;
77515;PMS5003;66627;29.424;-98.496;2023-12-20T06:20:33;17;15;
77515;PMS5003;66627;29.424;-98.496;2023-12-20T06:22:59;19;17;
77515;PMS5003;66627;29.424;-98.496;2023-12-20T06:25:25;14;14;
77515;PMS5003;66627;29.424;-98.496;2023-12-20T06:27:51;17;17;
77515;PMS5003;66627;29.424;-98.496;2023-12-20T06:30:16;19;16;
77515;PMS5003;66627;29.424;-98.496;2023-12-20T06:32:41;19;17;
77515;PMS5003;66627;29.424;-98.496;2023-12-20T06:35:08;19;19;
77515;PMS5003;66627;29.424;-98.496;2023-12-20T06:37:33;16;16;
77515;PMS5003;66627;29.424;-98.496;2023-12-20T06:39:58;19;18;
77515;PMS5003;66627;29.424;-98.496;2023-12-20T06:42:23;21;19;
77515;PMS5003;66627;29.424;-98.496;2023-12-20T06:44:49;15;15;
77515;PMS5003;66627;29.424;-98.496;2023-12-20T06:47:14;15;15;
77515;PMS5003;66627;29.424;-98.496;2023-12-20T06:49:39;14;14;
77515;PMS5003;66627;29.424;-98.496;2023-12-20T06:52:05;16;14;
77515;PMS5003;66627;29.424;-98.496;2023-12-20T06:54:30;12;12;
77515;PMS5003;66627;29.424;-98.496;2023-12-20T06:56:56;14;11;
77515;PMS5003;66627;29.424;-98.496;2023-12-20T06:59:22;12;12;
77515;PMS5003;66627;29.424;-98.496;2023-12-20T07:01:48;14;14;
77515;PMS5003;66627;29.424;-98.496;2023-12-20T07:04:12;12;12;
77515;PMS5003;66627;29.424;-98.496;2023-12-20T07:06:40;15;15;
77515;PMS5003;66627;29.424;-98.496;2023-12-20T07:09:04;16;16;
77515;PMS5003;66627;29.424;-98.496;2023-12-20T07:11:30;15;13;
77515;PMS5003;66627;29.424;-98.496;2023-12-20T07:13:54;14;14;
77515;PMS5003;66627;29.424;-98.496;2023-12-20T07:16:19;13;13;
77515;PMS5003;66627;29.424;-98.496;2023-12-20T07:18:45;15;14;
77515;PMS5003;66627;29.424;-98.496;2023-12-20T07:21:10;14;14;
77515;PMS5003;66627;29.424;-98.496;2023-12-20T07:23:35;11;11;
77515;PMS5003;66627;29.424;-98.496;2023-12-20T07:26:00;13;13;
77515;PMS5003;66627;29.424;-98.496;2023-12-20T07:28:26;11;11;
77515;PMS5003;66627;29.424;-98.496;2023-12-20T07:30:50;12;11;
77515;PMS5003;66627;29.424;-98.496;2023-12-20T07:33:16;15;14;
77515;PMS5003;66627;29.424;-98.496;2023-12-20T07:35:41;10;10;
77515;PMS5003;66627;29.424;-98.496;2023-12-20T07:38:07;11;10;
77515;PMS5003;66627;29.424;-98.496;2023-12-20T07:40:32;12;12;
77515;PMS5003;66627;29.424;-98.496;2023-12-20T07:42:57;13;13;
77515;PMS5003;66627;29.424;-98.496;2023-12-20T07:45:23;14;12;
77515;PMS5003;66627;29.424;-98.496;2023-12-20T07:47:48;11;11;
77515;PMS5003;66627;29.424;-98.496;2023-12-20T07:50:15;10;10;
77515;PMS5003;66627;29.424;-98.496;2023-12-20T07:52:39;14;12;
77515;PMS5003;66627;29.424;-98.496;2023-12-20T07:55:04;14;14;
77515;PMS5003;66627;29.424;-98.496;2023-12-20T07:57:30;15;15;
77515;PMS5003;66627;29.424;-98.496;2023-12-20T07:59:55;16;16;
77515;PMS5003;66627;29.424;-98.496;2023-12-20T08:02:21;17;16;
77515;PMS5003;66627;29.424;-98.496;2023-12-20T08:04:47;17;16;
77515;PMS5003;66627;29.424;-98.496;2023-12-20T08:07:12;13;13;
77515;PMS5003;66627;29.424;-98.496;2023-12-20T08:09:39;17;16;
77515;PMS5003;66627;29.424;-98.496;2023-12-20T08:12:03;15;15;
77515;PMS5003;66627;29.424;-98.496;2023-12-20T08:14:30;15;15;
77515;PMS5003;66627;29.424;-98.496;2023-12-20T08:16:55;18;15;
77515;PMS5003;66627;29.424;-98.496;2023-12-20T08:19:20;19;19;
77515;PMS5003;66627;29.424;-98.496;2023-12-20T08:21:45;16;16;
77515;PMS5003;66627;29.424;-98.496;2023-12-20T08:24:11;16;15;
77515;PMS5003;66627;29.424;-98.496;2023-12-20T08:26:37;13;13;
77515;PMS5003;66627;29.424;-98.496;2023-12-20T08:29:03;16;15;
77515;PMS5003;66627;29.424;-98.496;2023-12-20T08:31:29;14;14;
77515;PMS5003;66627;29.424;-98.496;2023-12-20T08:33:55;19;18;
77515;PMS5003;66627;29.424;-98.496;2023-12-20T08:36:20;14;14;
77515;PMS5003;66627;29.424;-98.496;2023-12-20T08:38:46;17;16;
77515;PMS5003;66627;29.424;-98.496;2023-12-20T08:41:12;17;17;
77515;PMS5003;66627;29.424;-98.496;2023-12-20T08:43:38;16;14;
77515;PMS5003;66627;29.424;-98.496;2023-12-20T08:46:04;17;17;
77515;PMS5003;66627;29.424;-98.496;2023-12-20T08:48:28;14;14;
77515;PMS5003;66627;29.424;-98.496;2023-12-20T08:50:53;17;16;
77515;PMS5003;66627;29.424;-98.496;2023-12-20T08:53:19;17;16;
77515;PMS5003;66627;29.424;-98.496;2023-12-20T08:55:45;15;13;
77515;PMS5003;66627;29.424;-98.496;2023-12-20T08:58:11;18;15;
77515;PMS5003;66627;29.424;-98.496;2023-12-20T09:00:34;14;12;
77515;PMS5003;66627;29.424;-98.496;2023-12-20T09:03:01;16;14;
77515;PMS5003;66627;29.424;-98.496;2023-12-20T09:05:26;15;14;
77515;PMS5003;66627;29.424;-98.496;2023-12-20T09:07:51;13;13;
77515;PMS5003;66627;29.424;-98.496;2023-12-20T09:10:16;14;14;
77515;PMS5003;66627;29.424;-98.496;2023-12-20T09:12:42;12;12;
77515;PMS5003;66627;29.424;-98.496;2023-12-20T09:15:07;18;16;
77515;PMS5003;66627;29.424;-98.496;2023-12-20T09:17:32;16;15;
77515;PMS5003;66627;29.424;-98.496;2023-12-20T09:19:58;17;14;
77515;PMS5003;66627;29.424;-98.496;2023-12-20T09:22:23;17;17;
77515;PMS5003;66627;29.424;-98.496;2023-12-20T09:24:49;13;13;
77515;PMS5003;66627;29.424;-98.496;2023-12-20T09:27:14;14;14;
77515;PMS5003;66627;29.424;-98.496;2023-12-20T09:29:40;12;12;
77515;PMS5003;66627;29.424;-98.496;2023-12-20T09:32:05;18;17;
77515;PMS5003;66627;29.424;-98.496;2023-12-20T09:34:31;19;19;
77515;PMS5003;66627;29.424;-98.496;2023-12-20T09:36:57;21;20;
77515;PMS5003;66627;29.424;-98.496;2023-12-20T09:39:21;19;19;
77515;PMS5003;66627;29.424;-98.496;2023-12-20T09:41:49;13;13;
77515;PMS5003;66627;29.424;-98.496;2023-12-20T09:44:13;20;18;
77515;PMS5003;66627;29.424;-98.496;2023-12-20T09:46:37;17;16;
77515;PMS5003;66627;29.424;-98.496;2023-12-20T09:49:03;15;15;
77515;PMS5003;66627;29.424;-98.496;2023-12-20T09:51:29;17;17;
77515;PMS5003;66627;29.424;-98.496;2023-12-20T09:53:55;19;18;
77515;PMS5003;66627;29.424;-98.496;2023-12-20T09:56:21;16;16;
77515;PMS5003;66627;29.424;-98.496;2023-12-20T09:58:46;16;16;
77515;PMS5003;66627;29.424;-98.496;2023-12-20T10:01:11;16;16;
77515;PMS5003;66627;29.424;-98.496;2023-12-20T10:03:36;16;15;
77515;PMS5003;66627;29.424;-98.496;2023-12-20T10:06:02;17;16;
77515;PMS5003;66627;29.424;-98.496;2023-12-20T10:08:28;15;13;
77515;PMS5003;66627;29.424;-98.496;2023-12-20T10:10:53;13;13;
77515;PMS5003;66627;29.424;-98.496;2023-12-20T10:13:19;15;14;
77515;PMS5003;66627;29.424;-98.496;2023-12-20T10:15:44;17;16;
77515;PMS5003;66627;29.424;-98.496;2023-12-20T10:18:09;17;17;
77515;PMS5003;66627;29.424;-98.496;2023-12-20T10:20:34;18;17;
77515;PMS5003;66627;29.424;-98.496;2023-12-20T10:23:00;17;17;
77515;PMS5003;66627;29.424;-98.496;2023-12-20T10:25:27;17;17;
77515;PMS5003;66627;29.424;-98.496;2023-12-20T10:30:17;15;13;
77515;PMS5003;66627;29.424;-98.496;2023-12-20T10:32:41;13;12;
77515;PMS5003;66627;29.424;-98.496;2023-12-20T10:35:08;13;13;
77515;PMS5003;66627;29.424;-98.496;2023-12-20T10:37:32;14;12;
77515;PMS5003;66627;29.424;-98.496;2023-12-20T10:39:57;17;15;
77515;PMS5003;66627;29.424;-98.496;2023-12-20T10:42:22;15;15;
77515;PMS5003;66627;29.424;-98.496;2023-12-20T10:44:48;16;15;
77515;PMS5003;66627;29.424;-98.496;2023-12-20T10:47:13;16;15;
77515;PMS5003;66627;29.424;-98.496;2023-12-20T10:49:39;19;16;
77515;PMS5003;66627;29.424;-98.496;2023-12-20T10:52:05;18;16;
77515;PMS5003;66627;29.424;-98.496;2023-12-20T10:54:30;18;17;
77515;PMS5003;66627;29.424;-98.496;2023-12-20T10:56:56;15;15;
77515;PMS5003;66627;29.424;-98.496;2023-12-20T10:59:21;18;16;
77515;PMS5003;66627;29.424;-98.496;2023-12-20T11:01:47;15;15;
77515;PMS5003;66627;29.424;-98.496;2023-12-20T11:04:15;18;17;
77515;PMS5003;66627;29.424;-98.496;2023-12-20T11:06:40;17;17;
77515;PMS5003;66627;29.424;-98.496;2023-12-20T11:09:06;15;14;
77515;PMS5003;66627;29.424;-98.496;2023-12-20T11:11:30;18;18;
77515;PMS5003;66627;29.424;-98.496;2023-12-20T11:13:57;18;18;
77515;PMS5003;66627;29.424;-98.496;2023-12-20T11:16:20;17;14;
77515;PMS5003;66627;29.424;-98.496;2023-12-20T11:18:46;17;17;
77515;PMS5003;66627;29.424;-98.496;2023-12-20T11:21:11;16;15;
77515;PMS5003;66627;29.424;-98.496;2023-12-20T11:23:37;16;14;
77515;PMS5003;66627;29.424;-98.496;2023-12-20T11:26:02;15;15;
77515;PMS5003;66627;29.424;-98.496;2023-12-20T11:28:29;16;14;
77515;PMS5003;66627;29.424;-98.496;2023-12-20T11:30:53;20;18;
77515;PMS5003;66627;29.424;-98.496;2023-12-20T11:33:21;17;16;
77515;PMS5003;66627;29.424;-98.496;2023-12-20T11:35:46;16;15;
77515;PMS5003;66627;29.424;-98.496;2023-12-20T11:38:10;15;15;
77515;PMS5003;66627;29.424;-98.496;2023-12-20T11:40:36;15;15;
77515;PMS5003;66627;29.424;-98.496;2023-12-20T11:43:02;16;16;
77515;PMS5003;66627;29.424;-98.496;2023-12-20T11:45:26;18;17;
77515;PMS5003;66627;29.424;-98.496;2023-12-20T11:47:52;14;14;
77515;PMS5003;66627;29.424;-98.496;2023-12-20T11:50:18;17;17;
77515;PMS5003;66627;29.424;-98.496;2023-12-20T11:52:43;15;15;
77515;PMS5003;66627;29.424;-98.496;2023-12-20T11:55:08;21;16;
77515;PMS5003;66627;29.424;-98.496;2023-12-20T11:57:34;23;19;
77515;PMS5003;66627;29.424;-98.496;2023-12-20T12:00:00;16;16;
77515;PMS5003;66627;29.424;-98.496;2023-12-20T12:02:25;18;18;
77515;PMS5003;66627;29.424;-98.496;2023-12-20T12:04:50;20;20;
77515;PMS5003;66627;29.424;-98.496;2023-12-20T12:07:16;18;16;
77515;PMS5003;66627;29.424;-98.496;2023-12-20T12:09:41;16;14;
77515;PMS5003;66627;29.424;-98.496;2023-12-20T12:12:07;20;20;
77515;PMS5003;66627;29.424;-98.496;2023-12-20T12:14:33;21;21;
77515;PMS5003;66627;29.424;-98.496;2023-12-20T12:16:59;20;18;
77515;PMS5003;66627;29.424;-98.496;2023-12-20T12:19:25;20;20;
77515;PMS5003;66627;29.424;-98.496;2023-12-20T12:21:49;19;17;
77515;PMS5003;66627;29.424;-98.496;2023-12-20T12:24:19;15;15;
77515;PMS5003;66627;29.424;-98.496;2023-12-20T12:26:41;20;20;
77515;PMS5003;66627;29.424;-98.496;2023-12-20T12:29:07;18;16;
77515;PMS5003;66627;29.424;-98.496;2023-12-20T12:31:31;20;20;
77515;PMS5003;66627;29.424;-98.496;2023-12-20T12:33:58;18;17;
77515;PMS5003;66627;29.424;-98.496;2023-12-20T12:36:23;16;16;
77515;PMS5003;66627;29.424;-98.496;2023-12-20T12:38:48;19;18;
77515;PMS5003;66627;29.424;-98.496;2023-12-20T12:41:13;16;16;
77515;PMS5003;66627;29.424;-98.496;2023-12-20T12:43:40;18;18;
77515;PMS5003;66627;29.424;-98.496;2023-12-20T12:46:06;19;18;
77515;PMS5003;66627;29.424;-98.496;2023-12-20T12:48:30;16;16;
77515;PMS5003;66627;29.424;-98.496;2023-12-20T12:50:56;16;16;
77515;PMS5003;66627;29.424;-98.496;2023-12-20T12:53:22;16;16;
77515;PMS5003;66627;29.424;-98.496;2023-12-20T12:55:49;19;18;
77515;PMS5003;66627;29.424;-98.496;2023-12-20T12:58:14;19;18;
77515;PMS5003;66627;29.424;-98.496;2023-12-20T13:00:39;14;14;
77515;PMS5003;66627;29.424;-98.496;2023-12-20T13:03:05;27;23;
77515;PMS5003;66627;29.424;-98.496;2023-12-20T13:05:30;20;20;
77515;PMS5003;66627;29.424;-98.496;2023-12-20T13:07:56;22;20;
77515;PMS5003;66627;29.424;-98.496;2023-12-20T13:10:23;22;18;
77515;PMS5003;66627;29.424;-98.496;2023-12-20T13:12:47;21;17;
77515;PMS5003;66627;29.424;-98.496;2023-12-20T13:15:12;17;17;
77515;PMS5003;66627;29.424;-98.496;2023-12-20T13:17:38;19;17;
77515;PMS5003;66627;29.424;-98.496;2023-12-20T13:20:04;19;19;
77515;PMS5003;66627;29.424;-98.496;2023-12-20T13:22:30;23;20;
77515;PMS5003;66627;29.424;-98.496;2023-12-20T13:24:55;22;22;
77515;PMS5003;66627;29.424;-98.496;2023-12-20T13:27:20;19;18;
77515;PMS5003;66627;29.424;-98.496;2023-12-20T13:29:45;20;20;
77515;PMS5003;66627;29.424;-98.496;2023-12-20T13:32:11;24;20;
77515;PMS5003;66627;29.424;-98.496;2023-12-20T13:34:35;23;22;
77515;PMS5003;66627;29.424;-98.496;2023-12-20T13:37:01;19;18;
77515;PMS5003;66627;29.424;-98.496;2023-12-20T13:39:26;21;19;
77515;PMS5003;66627;29.424;-98.496;2023-12-20T13:41:52;25;21;
77515;PMS5003;66627;29.424;-98.496;2023-12-20T13:44:18;23;22;
77515;PMS5003;66627;29.424;-98.496;2023-12-20T13:46:43;22;19;
77515;PMS5003;66627;29.424;-98.496;2023-12-20T13:49:09;21;21;
77515;PMS5003;66627;29.424;-98.496;2023-12-20T13:51:34;21;19;
77515;PMS5003;66627;29.424;-98.496;2023-12-20T13:54:00;25;22;
77515;PMS5003;66627;29.424;-98.496;2023-12-20T13:56:25;30;26;
77515;PMS5003;66627;29.424;-98.496;2023-12-20T13:58:51;28;25;
77515;PMS5003;66627;29.424;-98.496;2023-12-20T14:01:16;27;26;
77515;PMS5003;66627;29.424;-98.496;2023-12-20T14:03:43;25;23;
77515;PMS5003;66627;29.424;-98.496;2023-12-20T14:06:07;24;23;
77515;PMS5003;66627;29.424;-98.496;2023-12-20T14:08:32;22;22;
77515;PMS5003;66627;29.424;-98.496;2023-12-20T14:11:00;26;20;
77515;PMS5003;66627;29.424;-98.496;2023-12-20T14:13:24;24;22;
77515;PMS5003;66627;29.424;-98.496;2023-12-20T14:15:49;22;22;
77515;PMS5003;66627;29.424;-98.496;2023-12-20T14:18:16;24;21;
77515;PMS5003;66627;29.424;-98.496;2023-12-20T14:20:40;28;27;
77515;PMS5003;66627;29.424;-98.496;2023-12-20T14:23:06;25;23;
77515;PMS5003;66627;29.424;-98.496;2023-12-20T14:25:32;23;19;
77515;PMS5003;66627;29.424;-98.496;2023-12-20T14:27:57;26;22;
77515;PMS5003;66627;29.424;-98.496;2023-12-20T14:30:22;25;24;
77515;PMS5003;66627;29.424;-98.496;2023-12-20T14:32:49;27;22;
77515;PMS5003;66627;29.424;-98.496;2023-12-20T14:35:14;33;27;
77515;PMS5003;66627;29.424;-98.496;2023-12-20T14:37:39;22;21;
77515;PMS5003;66627;29.424;-98.496;2023-12-20T14:40:05;24;23;
77515;PMS5003;66627;29.424;-98.496;2023-12-20T14:42:31;26;25;
77515;PMS5003;66627;29.424;-98.496;2023-12-20T14:44:55;27;26;
77515;PMS5003;66627;29.424;-98.496;2023-12-20T14:47:22;24;24;
77515;PMS5003;66627;29.424;-98.496;2023-12-20T14:49:47;28;24;
77515;PMS5003;66627;29.424;-98.496;2023-12-20T14:52:13;22;22;
77515;PMS5003;66627;29.424;-98.496;2023-12-20T14:54:38;25;24;
77515;PMS5003;66627;29.424;-98.496;2023-12-20T14:57:04;23;22;
77515;PMS5003;66627;29.424;-98.496;2023-12-20T14:59:29;24;24;
77515;PMS5003;66627;29.424;-98.496;2023-12-20T15:01:54;32;27;
77515;PMS5003;66627;29.424;-98.496;2023-12-20T15:04:20;28;24;
77515;PMS5003;66627;29.424;-98.496;2023-12-20T15:06:45;29;26;
77515;PMS5003;66627;29.424;-98.496;2023-12-20T15:09:13;29;29;
77515;PMS5003;66627;29.424;-98.496;2023-12-20T15:11:37;37;31;
77515;PMS5003;66627;29.424;-98.496;2023-12-20T15:14:02;34;26;
77515;PMS5003;66627;29.424;-98.496;2023-12-20T15:16:27;29;26;
77515;PMS5003;66627;29.424;-98.496;2023-12-20T15:18:53;35;30;
77515;PMS5003;66627;29.424;-98.496;2023-12-20T15:21:19;35;32;
77515;PMS5003;66627;29.424;-98.496;2023-12-20T15:23:43;30;30;
77515;PMS5003;66627;29.424;-98.496;2023-12-20T15:26:09;27;24;
77515;PMS5003;66627;29.424;-98.496;2023-12-20T15:28:35;28;26;
77515;PMS5003;66627;29.424;-98.496;2023-12-20T15:31:00;30;29;
77515;PMS5003;66627;29.424;-98.496;2023-12-20T15:33:26;30;30;
77515;PMS5003;66627;29.424;-98.496;2023-12-20T15:35:51;29;27;
77515;PMS5003;66627;29.424;-98.496;2023-12-20T15:38:18;29;28;
77515;PMS5003;66627;29.424;-98.496;2023-12-20T15:40:43;29;27;